sensor_id;sensor_type;location;lat;lon;timestamp;pressure;altitude;pressure_sealevel;temperature;humidity
41862;BME280;27537;57.134;-2.136;2022-12-18T00:02:12;101086.13;;;-0.47;100.00
41862;BME280;27537;57.134;-2.136;2022-12-18T00:04:39;101080.19;;;-0.44;100.00
41862;BME280;27537;57.134;-2.136;2022-12-18T00:07:06;101097.34;;;-0.42;100.00
41862;BME280;27537;57.134;-2.136;2022-12-18T00:09:32;101111.03;;;-0.46;100.00
41862;BME280;27537;57.134;-2.136;2022-12-18T00:12:06;101115.25;;;-0.51;100.00
41862;BME280;27537;57.134;-2.136;2022-12-18T00:14:41;101113.63;;;-0.43;100.00
41862;BME280;27537;57.134;-2.136;2022-12-18T00:17:08;101113.50;;;-0.52;100.00
41862;BME280;27537;57.134;-2.136;2022-12-18T00:19:35;101095.50;;;-0.50;100.00
41862;BME280;27537;57.134;-2.136;2022-12-18T00:22:02;101111.88;;;-0.45;100.00
41862;BME280;27537;57.134;-2.136;2022-12-18T00:24:29;101115.31;;;-0.45;100.00
41862;BME280;27537;57.134;-2.136;2022-12-18T00:26:55;101132.84;;;-0.77;100.00
41862;BME280;27537;57.134;-2.136;2022-12-18T00:29:22;101140.84;;;-0.60;100.00
41862;BME280;27537;57.134;-2.136;2022-12-18T00:31:49;101114.72;;;-0.86;100.00
41862;BME280;27537;57.134;-2.136;2022-12-18T00:34:16;101131.31;;;-0.67;100.00
41862;BME280;27537;57.134;-2.136;2022-12-18T00:36:42;101126.22;;;-0.63;100.00
41862;BME280;27537;57.134;-2.136;2022-12-18T00:39:10;101139.75;;;-0.74;100.00
41862;BME280;27537;57.134;-2.136;2022-12-18T00:41:37;101125.75;;;-0.93;100.00
41862;BME280;27537;57.134;-2.136;2022-12-18T00:44:22;101144.97;;;-0.70;100.00
41862;BME280;27537;57.134;-2.136;2022-12-18T00:46:49;101129.31;;;-0.84;100.00
41862;BME280;27537;57.134;-2.136;2022-12-18T00:49:17;101136.09;;;-0.89;100.00
41862;BME280;27537;57.134;-2.136;2022-12-18T00:51:45;101121.38;;;-0.98;100.00
41862;BME280;27537;57.134;-2.136;2022-12-18T00:54:12;101124.91;;;-0.92;100.00
41862;BME280;27537;57.134;-2.136;2022-12-18T00:56:39;101146.28;;;-0.95;100.00
41862;BME280;27537;57.134;-2.136;2022-12-18T00:59:15;101127.53;;;-0.89;100.00
41862;BME280;27537;57.134;-2.136;2022-12-18T01:01:42;101131.97;;;-0.79;100.00
41862;BME280;27537;57.134;-2.136;2022-12-18T01:04:09;101101.72;;;-0.94;100.00
41862;BME280;27537;57.134;-2.136;2022-12-18T01:06:35;101129.25;;;-0.87;100.00
41862;BME280;27537;57.134;-2.136;2022-12-18T01:09:02;101128.34;;;-0.90;100.00
41862;BME280;27537;57.134;-2.136;2022-12-18T01:11:29;101154.94;;;-0.90;100.00
41862;BME280;27537;57.134;-2.136;2022-12-18T01:13:56;101148.75;;;-1.01;100.00
41862;BME280;27537;57.134;-2.136;2022-12-18T01:16:23;101130.56;;;-1.15;100.00
41862;BME280;27537;57.134;-2.136;2022-12-18T01:18:54;101138.31;;;-1.10;100.00
41862;BME280;27537;57.134;-2.136;2022-12-18T01:21:22;101150.56;;;-0.94;100.00
41862;BME280;27537;57.134;-2.136;2022-12-18T01:23:54;101120.25;;;-1.17;100.00
41862;BME280;27537;57.134;-2.136;2022-12-18T01:26:21;101140.16;;;-1.03;100.00
41862;BME280;27537;57.134;-2.136;2022-12-18T01:28:48;101094.41;;;-1.24;100.00
41862;BME280;27537;57.134;-2.136;2022-12-18T01:31:21;101148.91;;;-0.92;100.00
41862;BME280;27537;57.134;-2.136;2022-12-18T01:33:49;101148.72;;;-1.03;100.00
41862;BME280;27537;57.134;-2.136;2022-12-18T01:38:46;101139.41;;;-0.96;100.00
41862;BME280;27537;57.134;-2.136;2022-12-18T01:41:17;101054.47;;;-1.57;100.00
41862;BME280;27537;57.134;-2.136;2022-12-18T01:46:13;101118.09;;;-1.41;100.00
41862;BME280;27537;57.134;-2.136;2022-12-18T01:48:41;101108.56;;;-1.48;100.00
41862;BME280;27537;57.134;-2.136;2022-12-18T01:51:10;101147.63;;;-1.19;100.00
41862;BME280;27537;57.134;-2.136;2022-12-18T01:53:39;101117.41;;;-1.32;100.00
41862;BME280;27537;57.134;-2.136;2022-12-18T01:56:07;101099.09;;;-1.52;100.00
41862;BME280;27537;57.134;-2.136;2022-12-18T02:01:08;101112.88;;;-1.47;100.00
41862;BME280;27537;57.134;-2.136;2022-12-18T02:03:35;101073.88;;;-1.73;100.00
41862;BME280;27537;57.134;-2.136;2022-12-18T02:08:34;101153.97;;;-1.47;100.00
41862;BME280;27537;57.134;-2.136;2022-12-18T02:11:22;101108.84;;;-1.80;100.00
41862;BME280;27537;57.134;-2.136;2022-12-18T02:13:53;101154.06;;;-1.41;100.00
41862;BME280;27537;57.134;-2.136;2022-12-18T02:24:55;101108.25;;;-1.65;100.00
41862;BME280;27537;57.134;-2.136;2022-12-18T02:27:28;101155.59;;;-1.52;100.00
41862;BME280;27537;57.134;-2.136;2022-12-18T02:29:57;101127.03;;;-1.67;100.00
41862;BME280;27537;57.134;-2.136;2022-12-18T02:32:28;101100.38;;;-1.74;100.00
41862;BME280;27537;57.134;-2.136;2022-12-18T02:34:58;101080.56;;;-1.81;100.00
41862;BME280;27537;57.134;-2.136;2022-12-18T02:37:27;101119.06;;;-1.81;100.00
41862;BME280;27537;57.134;-2.136;2022-12-18T02:39:56;101116.81;;;-1.66;100.00
41862;BME280;27537;57.134;-2.136;2022-12-18T02:42:24;101135.72;;;-1.62;100.00
41862;BME280;27537;57.134;-2.136;2022-12-18T02:44:51;101101.03;;;-1.84;100.00
41862;BME280;27537;57.134;-2.136;2022-12-18T02:47:21;101103.75;;;-1.78;100.00
41862;BME280;27537;57.134;-2.136;2022-12-18T02:58:15;101177.97;;;-1.45;100.00
41862;BME280;27537;57.134;-2.136;2022-12-18T03:00:51;101130.34;;;-1.75;100.00
41862;BME280;27537;57.134;-2.136;2022-12-18T03:03:29;101109.66;;;-1.81;100.00
41862;BME280;27537;57.134;-2.136;2022-12-18T03:06:01;101157.09;;;-1.62;100.00
41862;BME280;27537;57.134;-2.136;2022-12-18T03:08:37;101142.50;;;-1.66;100.00
41862;BME280;27537;57.134;-2.136;2022-12-18T03:11:09;101096.38;;;-2.04;100.00
41862;BME280;27537;57.134;-2.136;2022-12-18T03:13:40;101137.69;;;-1.92;100.00
41862;BME280;27537;57.134;-2.136;2022-12-18T03:16:11;101124.75;;;-1.98;100.00
41862;BME280;27537;57.134;-2.136;2022-12-18T03:18:44;101165.56;;;-1.67;100.00
41862;BME280;27537;57.134;-2.136;2022-12-18T03:21:14;101173.22;;;-1.69;100.00
41862;BME280;27537;57.134;-2.136;2022-12-18T03:23:48;101122.16;;;-1.99;100.00
41862;BME280;27537;57.134;-2.136;2022-12-18T03:26:18;101109.97;;;-2.10;100.00
41862;BME280;27537;57.134;-2.136;2022-12-18T03:28:51;101095.13;;;-2.24;100.00
41862;BME280;27537;57.134;-2.136;2022-12-18T03:31:22;101141.03;;;-1.96;100.00
41862;BME280;27537;57.134;-2.136;2022-12-18T03:33:55;101095.84;;;-2.32;100.00
41862;BME280;27537;57.134;-2.136;2022-12-18T03:36:23;101065.19;;;-2.67;100.00
41862;BME280;27537;57.134;-2.136;2022-12-18T03:38:50;101098.63;;;-2.60;100.00
41862;BME280;27537;57.134;-2.136;2022-12-18T03:41:33;101140.16;;;-2.39;100.00
41862;BME280;27537;57.134;-2.136;2022-12-18T03:47:11;101170.97;;;-2.37;100.00
41862;BME280;27537;57.134;-2.136;2022-12-18T03:50:01;101172.09;;;-2.24;100.00
41862;BME280;27537;57.134;-2.136;2022-12-18T03:55:35;101121.00;;;-2.55;100.00
41862;BME280;27537;57.134;-2.136;2022-12-18T03:58:04;101122.25;;;-2.75;100.00
41862;BME280;27537;57.134;-2.136;2022-12-18T04:00:33;101133.59;;;-2.64;100.00
41862;BME280;27537;57.134;-2.136;2022-12-18T04:03:01;101110.25;;;-2.76;100.00
41862;BME280;27537;57.134;-2.136;2022-12-18T04:05:33;101131.69;;;-2.74;100.00
41862;BME280;27537;57.134;-2.136;2022-12-18T04:08:01;101146.25;;;-2.72;100.00
41862;BME280;27537;57.134;-2.136;2022-12-18T04:10:29;101129.25;;;-3.03;100.00
41862;BME280;27537;57.134;-2.136;2022-12-18T04:12:57;101164.50;;;-2.94;100.00
41862;BME280;27537;57.134;-2.136;2022-12-18T04:15:24;101104.25;;;-3.15;100.00
41862;BME280;27537;57.134;-2.136;2022-12-18T04:17:51;101126.97;;;-2.92;100.00
41862;BME280;27537;57.134;-2.136;2022-12-18T04:20:18;101114.63;;;-3.09;100.00
41862;BME280;27537;57.134;-2.136;2022-12-18T04:22:44;101169.88;;;-2.85;100.00
41862;BME280;27537;57.134;-2.136;2022-12-18T04:25:12;101100.06;;;-3.11;100.00
41862;BME280;27537;57.134;-2.136;2022-12-18T04:27:39;101164.31;;;-2.67;100.00
41862;BME280;27537;57.134;-2.136;2022-12-18T04:30:06;101164.22;;;-2.70;100.00
41862;BME280;27537;57.134;-2.136;2022-12-18T04:32:34;101164.97;;;-2.76;100.00
41862;BME280;27537;57.134;-2.136;2022-12-18T04:35:01;101176.41;;;-2.61;100.00
41862;BME280;27537;57.134;-2.136;2022-12-18T04:37:28;101167.84;;;-2.62;100.00
41862;BME280;27537;57.134;-2.136;2022-12-18T04:39:54;101123.31;;;-3.02;100.00
41862;BME280;27537;57.134;-2.136;2022-12-18T04:42:21;101151.06;;;-2.84;100.00
41862;BME280;27537;57.134;-2.136;2022-12-18T04:44:48;101140.50;;;-2.98;100.00
41862;BME280;27537;57.134;-2.136;2022-12-18T04:47:15;101111.97;;;-3.12;100.00
41862;BME280;27537;57.134;-2.136;2022-12-18T04:49:41;101181.31;;;-2.71;100.00
41862;BME280;27537;57.134;-2.136;2022-12-18T04:52:08;101145.00;;;-2.88;100.00
41862;BME280;27537;57.134;-2.136;2022-12-18T04:54:35;101160.84;;;-2.68;100.00
41862;BME280;27537;57.134;-2.136;2022-12-18T04:57:02;101126.81;;;-2.62;100.00
41862;BME280;27537;57.134;-2.136;2022-12-18T04:59:28;101149.91;;;-2.22;100.00
41862;BME280;27537;57.134;-2.136;2022-12-18T05:01:55;101161.78;;;-1.85;100.00
41862;BME280;27537;57.134;-2.136;2022-12-18T05:04:22;101168.97;;;-1.67;100.00
41862;BME280;27537;57.134;-2.136;2022-12-18T05:06:49;101145.03;;;-1.67;100.00
41862;BME280;27537;57.134;-2.136;2022-12-18T05:09:16;101145.25;;;-1.55;100.00
41862;BME280;27537;57.134;-2.136;2022-12-18T05:11:44;101095.44;;;-1.63;100.00
41862;BME280;27537;57.134;-2.136;2022-12-18T05:14:11;101055.16;;;-1.67;100.00
41862;BME280;27537;57.134;-2.136;2022-12-18T05:16:38;101114.97;;;-1.24;100.00
41862;BME280;27537;57.134;-2.136;2022-12-18T05:19:05;101123.59;;;-1.21;100.00
41862;BME280;27537;57.134;-2.136;2022-12-18T05:21:31;101129.81;;;-1.06;100.00
41862;BME280;27537;57.134;-2.136;2022-12-18T05:23:58;101106.75;;;-1.03;100.00
41862;BME280;27537;57.134;-2.136;2022-12-18T05:26:25;101081.72;;;-1.13;100.00
41862;BME280;27537;57.134;-2.136;2022-12-18T05:28:52;101131.09;;;-0.81;100.00
41862;BME280;27537;57.134;-2.136;2022-12-18T05:31:19;101047.88;;;-1.43;100.00
41862;BME280;27537;57.134;-2.136;2022-12-18T05:33:45;101078.94;;;-1.29;100.00
41862;BME280;27537;57.134;-2.136;2022-12-18T05:36:12;101088.59;;;-1.12;100.00
41862;BME280;27537;57.134;-2.136;2022-12-18T05:38:39;101029.94;;;-1.40;100.00
41862;BME280;27537;57.134;-2.136;2022-12-18T05:41:07;101075.75;;;-1.12;100.00
41862;BME280;27537;57.134;-2.136;2022-12-18T05:43:36;101102.84;;;-0.80;100.00
41862;BME280;27537;57.134;-2.136;2022-12-18T05:46:08;101059.47;;;-1.13;100.00
41862;BME280;27537;57.134;-2.136;2022-12-18T05:48:37;101081.06;;;-1.02;100.00
41862;BME280;27537;57.134;-2.136;2022-12-18T05:51:10;101064.69;;;-1.07;100.00
41862;BME280;27537;57.134;-2.136;2022-12-18T05:53:37;101051.06;;;-1.04;100.00
41862;BME280;27537;57.134;-2.136;2022-12-18T05:56:14;101090.84;;;-0.78;100.00
41862;BME280;27537;57.134;-2.136;2022-12-18T05:58:41;101040.69;;;-1.09;100.00
41862;BME280;27537;57.134;-2.136;2022-12-18T06:01:14;101106.44;;;-0.67;100.00
41862;BME280;27537;57.134;-2.136;2022-12-18T06:03:42;101071.03;;;-0.85;100.00
41862;BME280;27537;57.134;-2.136;2022-12-18T06:06:27;101105.56;;;-0.66;100.00
41862;BME280;27537;57.134;-2.136;2022-12-18T06:08:54;101105.38;;;-0.81;100.00
41862;BME280;27537;57.134;-2.136;2022-12-18T06:11:24;101076.59;;;-1.13;100.00
41862;BME280;27537;57.134;-2.136;2022-12-18T06:13:53;101082.63;;;-1.10;100.00
41862;BME280;27537;57.134;-2.136;2022-12-18T06:16:25;101112.78;;;-1.00;100.00
41862;BME280;27537;57.134;-2.136;2022-12-18T06:18:53;101108.44;;;-1.04;100.00
41862;BME280;27537;57.134;-2.136;2022-12-18T06:21:19;101078.25;;;-1.17;100.00
41862;BME280;27537;57.134;-2.136;2022-12-18T06:23:46;101110.22;;;-1.00;100.00
41862;BME280;27537;57.134;-2.136;2022-12-18T06:26:16;101050.44;;;-1.43;100.00
41862;BME280;27537;57.134;-2.136;2022-12-18T06:28:43;101075.44;;;-1.32;100.00
41862;BME280;27537;57.134;-2.136;2022-12-18T06:31:10;101109.97;;;-1.17;100.00
41862;BME280;27537;57.134;-2.136;2022-12-18T06:33:38;101093.59;;;-1.22;100.00
41862;BME280;27537;57.134;-2.136;2022-12-18T06:36:07;101108.25;;;-1.16;100.00
41862;BME280;27537;57.134;-2.136;2022-12-18T06:38:35;101114.22;;;-1.17;100.00
41862;BME280;27537;57.134;-2.136;2022-12-18T06:41:10;101041.69;;;-1.56;100.00
41862;BME280;27537;57.134;-2.136;2022-12-18T06:43:38;101046.78;;;-1.57;100.00
41862;BME280;27537;57.134;-2.136;2022-12-18T06:46:05;101063.94;;;-1.55;100.00
41862;BME280;27537;57.134;-2.136;2022-12-18T06:48:33;101081.47;;;-1.30;100.00
41862;BME280;27537;57.134;-2.136;2022-12-18T06:51:02;101030.50;;;-1.56;100.00
41862;BME280;27537;57.134;-2.136;2022-12-18T06:53:32;101089.22;;;-1.27;100.00
41862;BME280;27537;57.134;-2.136;2022-12-18T06:56:04;101048.47;;;-1.58;100.00
41862;BME280;27537;57.134;-2.136;2022-12-18T06:58:36;101087.38;;;-1.36;100.00
41862;BME280;27537;57.134;-2.136;2022-12-18T07:01:05;101079.66;;;-1.36;100.00
41862;BME280;27537;57.134;-2.136;2022-12-18T07:03:37;101110.78;;;-1.18;100.00
41862;BME280;27537;57.134;-2.136;2022-12-18T07:06:05;101087.47;;;-1.30;100.00
41862;BME280;27537;57.134;-2.136;2022-12-18T07:08:33;101070.66;;;-1.61;100.00
41862;BME280;27537;57.134;-2.136;2022-12-18T07:11:03;101055.09;;;-1.70;100.00
41862;BME280;27537;57.134;-2.136;2022-12-18T07:13:32;101102.00;;;-1.32;100.00
41862;BME280;27537;57.134;-2.136;2022-12-18T07:16:14;101074.22;;;-1.53;100.00
41862;BME280;27537;57.134;-2.136;2022-12-18T07:18:49;101108.84;;;-1.32;100.00
41862;BME280;27537;57.134;-2.136;2022-12-18T07:21:18;101113.41;;;-1.16;100.00
41862;BME280;27537;57.134;-2.136;2022-12-18T07:23:45;101084.09;;;-1.27;100.00
41862;BME280;27537;57.134;-2.136;2022-12-18T07:26:17;101067.78;;;-1.28;100.00
41862;BME280;27537;57.134;-2.136;2022-12-18T07:28:46;101046.13;;;-1.44;100.00
41862;BME280;27537;57.134;-2.136;2022-12-18T07:31:16;101035.03;;;-1.43;100.00
41862;BME280;27537;57.134;-2.136;2022-12-18T07:33:44;101098.38;;;-0.91;100.00
41862;BME280;27537;57.134;-2.136;2022-12-18T07:36:11;101049.19;;;-1.15;100.00
41862;BME280;27537;57.134;-2.136;2022-12-18T07:38:42;101108.06;;;-0.72;100.00
41862;BME280;27537;57.134;-2.136;2022-12-18T07:41:12;101074.38;;;-0.90;100.00
41862;BME280;27537;57.134;-2.136;2022-12-18T07:43:40;101046.72;;;-1.07;100.00
41862;BME280;27537;57.134;-2.136;2022-12-18T07:46:09;101063.47;;;-0.75;100.00
41862;BME280;27537;57.134;-2.136;2022-12-18T07:48:38;101016.84;;;-1.00;100.00
41862;BME280;27537;57.134;-2.136;2022-12-18T07:51:06;101054.16;;;-0.64;100.00
41862;BME280;27537;57.134;-2.136;2022-12-18T07:53:34;101003.25;;;-0.91;100.00
41862;BME280;27537;57.134;-2.136;2022-12-18T07:56:04;100974.88;;;-0.99;100.00
41862;BME280;27537;57.134;-2.136;2022-12-18T07:58:51;100990.66;;;-0.70;100.00
41862;BME280;27537;57.134;-2.136;2022-12-18T08:01:18;101020.13;;;-0.45;100.00
41862;BME280;27537;57.134;-2.136;2022-12-18T08:03:46;100991.41;;;-0.79;100.00
41862;BME280;27537;57.134;-2.136;2022-12-18T08:06:13;100998.25;;;-0.81;100.00
41862;BME280;27537;57.134;-2.136;2022-12-18T08:08:40;101018.91;;;-0.73;100.00
41862;BME280;27537;57.134;-2.136;2022-12-18T08:11:08;101030.44;;;-0.43;100.00
41862;BME280;27537;57.134;-2.136;2022-12-18T08:13:41;101058.06;;;-0.30;100.00
41862;BME280;27537;57.134;-2.136;2022-12-18T08:16:09;101007.19;;;-0.52;100.00
41862;BME280;27537;57.134;-2.136;2022-12-18T08:18:37;101067.66;;;-0.15;100.00
41862;BME280;27537;57.134;-2.136;2022-12-18T08:21:11;101028.94;;;-0.26;100.00
41862;BME280;27537;57.134;-2.136;2022-12-18T08:23:38;101030.50;;;-0.39;100.00
41862;BME280;27537;57.134;-2.136;2022-12-18T08:26:09;101036.69;;;-0.23;100.00
41862;BME280;27537;57.134;-2.136;2022-12-18T08:28:40;101033.38;;;-0.09;100.00
41862;BME280;27537;57.134;-2.136;2022-12-18T08:31:08;101023.13;;;-0.06;100.00
41862;BME280;27537;57.134;-2.136;2022-12-18T08:33:36;100939.44;;;-0.50;100.00
41862;BME280;27537;57.134;-2.136;2022-12-18T08:36:05;100970.44;;;-0.39;100.00
41862;BME280;27537;57.134;-2.136;2022-12-18T08:38:32;100965.19;;;-0.48;100.00
41862;BME280;27537;57.134;-2.136;2022-12-18T08:43:30;100925.66;;;-0.60;100.00
41862;BME280;27537;57.134;-2.136;2022-12-18T08:46:16;100997.34;;;-0.12;100.00
41862;BME280;27537;57.134;-2.136;2022-12-18T08:48:47;101012.94;;;0.03;100.00
41862;BME280;27537;57.134;-2.136;2022-12-18T08:51:19;100975.94;;;-0.07;100.00
41862;BME280;27537;57.134;-2.136;2022-12-18T08:53:46;100902.50;;;-0.60;100.00
41862;BME280;27537;57.134;-2.136;2022-12-18T08:56:14;100956.94;;;-0.18;100.00
41862;BME280;27537;57.134;-2.136;2022-12-18T08:58:42;100920.94;;;-0.15;100.00
41862;BME280;27537;57.134;-2.136;2022-12-18T09:01:10;101004.72;;;0.41;100.00
41862;BME280;27537;57.134;-2.136;2022-12-18T09:03:43;100895.94;;;-0.27;100.00
41862;BME280;27537;57.134;-2.136;2022-12-18T09:06:14;100975.47;;;0.36;100.00
41862;BME280;27537;57.134;-2.136;2022-12-18T09:08:42;100922.91;;;0.11;100.00
41862;BME280;27537;57.134;-2.136;2022-12-18T09:11:23;100946.44;;;0.57;100.00
41862;BME280;27537;57.134;-2.136;2022-12-18T09:13:54;100987.13;;;1.15;100.00
41862;BME280;27537;57.134;-2.136;2022-12-18T09:16:25;100951.97;;;1.31;100.00
41862;BME280;27537;57.134;-2.136;2022-12-18T09:18:59;100980.50;;;1.71;100.00
41862;BME280;27537;57.134;-2.136;2022-12-18T09:21:28;100914.13;;;1.28;100.00
41862;BME280;27537;57.134;-2.136;2022-12-18T09:24:05;100945.16;;;1.50;100.00
41862;BME280;27537;57.134;-2.136;2022-12-18T09:26:34;100910.75;;;1.56;100.00
41862;BME280;27537;57.134;-2.136;2022-12-18T09:29:05;100915.09;;;1.78;100.00
41862;BME280;27537;57.134;-2.136;2022-12-18T09:31:36;100929.75;;;2.07;100.00
41862;BME280;27537;57.134;-2.136;2022-12-18T09:34:08;100894.47;;;2.20;100.00
41862;BME280;27537;57.134;-2.136;2022-12-18T09:36:35;100858.25;;;2.40;100.00
41862;BME280;27537;57.134;-2.136;2022-12-18T09:39:02;100856.47;;;2.66;100.00
41862;BME280;27537;57.134;-2.136;2022-12-18T09:41:41;100955.25;;;3.61;100.00
41862;BME280;27537;57.134;-2.136;2022-12-18T09:44:29;100957.66;;;3.90;100.00
41862;BME280;27537;57.134;-2.136;2022-12-18T09:49:29;100907.44;;;4.07;100.00
41862;BME280;27537;57.134;-2.136;2022-12-18T09:52:09;100898.72;;;4.18;100.00
41862;BME280;27537;57.134;-2.136;2022-12-18T09:54:39;100884.03;;;4.19;100.00
41862;BME280;27537;57.134;-2.136;2022-12-18T09:57:20;100836.63;;;4.08;100.00
41862;BME280;27537;57.134;-2.136;2022-12-18T09:59:56;100918.31;;;4.50;100.00
41862;BME280;27537;57.134;-2.136;2022-12-18T10:02:26;100863.97;;;4.40;100.00
41862;BME280;27537;57.134;-2.136;2022-12-18T10:05:07;100934.41;;;4.83;100.00
41862;BME280;27537;57.134;-2.136;2022-12-18T10:10:32;100856.78;;;4.65;100.00
41862;BME280;27537;57.134;-2.136;2022-12-18T10:19:16;100883.09;;;5.07;100.00
41862;BME280;27537;57.134;-2.136;2022-12-18T10:22:16;100922.53;;;5.37;100.00
41862;BME280;27537;57.134;-2.136;2022-12-18T10:27:28;100874.44;;;5.08;100.00
41862;BME280;27537;57.134;-2.136;2022-12-18T10:29:56;100915.44;;;5.48;100.00
41862;BME280;27537;57.134;-2.136;2022-12-18T10:32:29;100893.94;;;5.38;100.00
41862;BME280;27537;57.134;-2.136;2022-12-18T10:35:00;100888.47;;;5.60;100.00
41862;BME280;27537;57.134;-2.136;2022-12-18T10:37:28;100868.69;;;5.49;100.00
41862;BME280;27537;57.134;-2.136;2022-12-18T10:40:15;100879.63;;;5.70;100.00
41862;BME280;27537;57.134;-2.136;2022-12-18T10:43:03;100867.53;;;5.69;100.00
41862;BME280;27537;57.134;-2.136;2022-12-18T10:45:33;100843.41;;;5.59;100.00
41862;BME280;27537;57.134;-2.136;2022-12-18T10:48:00;100801.50;;;5.28;100.00
41862;BME280;27537;57.134;-2.136;2022-12-18T10:50:36;100844.34;;;5.57;100.00
41862;BME280;27537;57.134;-2.136;2022-12-18T10:53:27;100864.84;;;5.74;100.00
41862;BME280;27537;57.134;-2.136;2022-12-18T10:55:57;100754.81;;;5.23;100.00
41862;BME280;27537;57.134;-2.136;2022-12-18T10:58:30;100806.19;;;5.60;100.00
41862;BME280;27537;57.134;-2.136;2022-12-18T11:01:14;100850.94;;;5.78;100.00
41862;BME280;27537;57.134;-2.136;2022-12-18T11:06:27;100779.09;;;5.74;100.00
41862;BME280;27537;57.134;-2.136;2022-12-18T11:09:00;100835.97;;;5.94;100.00
41862;BME280;27537;57.134;-2.136;2022-12-18T11:11:33;100786.25;;;5.61;100.00
41862;BME280;27537;57.134;-2.136;2022-12-18T11:14:28;100780.75;;;5.81;100.00
41862;BME280;27537;57.134;-2.136;2022-12-18T11:16:58;100776.44;;;5.78;100.00
41862;BME280;27537;57.134;-2.136;2022-12-18T11:19:52;100814.88;;;6.11;100.00
41862;BME280;27537;57.134;-2.136;2022-12-18T11:22:38;100752.69;;;6.01;100.00
41862;BME280;27537;57.134;-2.136;2022-12-18T11:25:18;100808.00;;;6.10;100.00
41862;BME280;27537;57.134;-2.136;2022-12-18T11:28:03;100753.22;;;5.69;100.00
41862;BME280;27537;57.134;-2.136;2022-12-18T11:30:32;100738.28;;;5.80;100.00
41862;BME280;27537;57.134;-2.136;2022-12-18T11:33:11;100771.81;;;5.97;100.00
41862;BME280;27537;57.134;-2.136;2022-12-18T11:35:56;100764.91;;;5.93;100.00
41862;BME280;27537;57.134;-2.136;2022-12-18T11:38:30;100765.09;;;5.84;100.00
41862;BME280;27537;57.134;-2.136;2022-12-18T11:41:11;100725.44;;;5.73;100.00
41862;BME280;27537;57.134;-2.136;2022-12-18T11:43:47;100702.13;;;5.69;100.00
41862;BME280;27537;57.134;-2.136;2022-12-18T11:46:53;100742.22;;;6.06;100.00
41862;BME280;27537;57.134;-2.136;2022-12-18T11:49:26;100754.16;;;6.16;100.00
41862;BME280;27537;57.134;-2.136;2022-12-18T11:54:40;100723.19;;;6.04;100.00
41862;BME280;27537;57.134;-2.136;2022-12-18T12:11:35;100685.69;;;6.16;100.00
41862;BME280;27537;57.134;-2.136;2022-12-18T12:14:23;100630.44;;;5.59;100.00
41862;BME280;27537;57.134;-2.136;2022-12-18T12:28:09;100613.78;;;5.69;100.00
41862;BME280;27537;57.134;-2.136;2022-12-18T12:35:55;100656.97;;;6.22;100.00
41862;BME280;27537;57.134;-2.136;2022-12-18T12:38:37;100612.50;;;5.92;100.00
41862;BME280;27537;57.134;-2.136;2022-12-18T12:41:14;100643.03;;;6.24;100.00
41862;BME280;27537;57.134;-2.136;2022-12-18T12:44:04;100643.47;;;6.04;100.00
41862;BME280;27537;57.134;-2.136;2022-12-18T12:46:37;100622.84;;;5.97;100.00
41862;BME280;27537;57.134;-2.136;2022-12-18T12:49:15;100640.66;;;6.14;100.00
41862;BME280;27537;57.134;-2.136;2022-12-18T12:51:47;100603.75;;;5.95;100.00
41862;BME280;27537;57.134;-2.136;2022-12-18T12:54:23;100586.38;;;5.98;100.00
41862;BME280;27537;57.134;-2.136;2022-12-18T12:57:08;100602.09;;;5.92;100.00
41862;BME280;27537;57.134;-2.136;2022-12-18T13:02:59;100612.22;;;6.07;100.00
41862;BME280;27537;57.134;-2.136;2022-12-18T13:05:49;100611.75;;;5.85;100.00
41862;BME280;27537;57.134;-2.136;2022-12-18T13:08:26;100587.72;;;5.74;100.00
41862;BME280;27537;57.134;-2.136;2022-12-18T13:10:58;100549.94;;;5.58;100.00
41862;BME280;27537;57.134;-2.136;2022-12-18T13:13:54;100573.94;;;5.72;100.00
41862;BME280;27537;57.134;-2.136;2022-12-18T13:16:23;100584.72;;;5.94;100.00
41862;BME280;27537;57.134;-2.136;2022-12-18T13:18:56;100574.50;;;5.86;100.00
41862;BME280;27537;57.134;-2.136;2022-12-18T13:21:28;100530.94;;;5.56;100.00
41862;BME280;27537;57.134;-2.136;2022-12-18T13:23:56;100561.88;;;5.66;100.00
41862;BME280;27537;57.134;-2.136;2022-12-18T13:26:35;100539.09;;;5.37;100.00
41862;BME280;27537;57.134;-2.136;2022-12-18T13:29:02;100554.94;;;5.68;100.00
41862;BME280;27537;57.134;-2.136;2022-12-18T13:34:23;100560.47;;;5.51;100.00
41862;BME280;27537;57.134;-2.136;2022-12-18T13:36:55;100539.31;;;5.70;100.00
41862;BME280;27537;57.134;-2.136;2022-12-18T13:39:31;100542.81;;;5.69;100.00
41862;BME280;27537;57.134;-2.136;2022-12-18T13:44:39;100513.56;;;5.59;100.00
41862;BME280;27537;57.134;-2.136;2022-12-18T13:47:34;100505.69;;;5.62;100.00
41862;BME280;27537;57.134;-2.136;2022-12-18T13:50:09;100520.56;;;5.54;100.00
41862;BME280;27537;57.134;-2.136;2022-12-18T13:52:39;100506.50;;;5.66;100.00
41862;BME280;27537;57.134;-2.136;2022-12-18T13:55:15;100468.53;;;5.60;100.00
41862;BME280;27537;57.134;-2.136;2022-12-18T13:57:43;100505.06;;;5.53;100.00
41862;BME280;27537;57.134;-2.136;2022-12-18T14:02:49;100471.03;;;5.23;100.00
41862;BME280;27537;57.134;-2.136;2022-12-18T14:08:10;100435.72;;;5.14;100.00
41862;BME280;27537;57.134;-2.136;2022-12-18T14:10:46;100460.19;;;5.44;100.00
41862;BME280;27537;57.134;-2.136;2022-12-18T14:13:22;100437.31;;;5.21;100.00
41862;BME280;27537;57.134;-2.136;2022-12-18T14:15:50;100459.56;;;5.33;100.00
41862;BME280;27537;57.134;-2.136;2022-12-18T14:18:26;100430.41;;;5.19;100.00
41862;BME280;27537;57.134;-2.136;2022-12-18T14:20:56;100420.56;;;5.35;100.00
41862;BME280;27537;57.134;-2.136;2022-12-18T14:23:40;100460.22;;;5.43;100.00
41862;BME280;27537;57.134;-2.136;2022-12-18T14:26:25;100442.28;;;5.32;100.00
41862;BME280;27537;57.134;-2.136;2022-12-18T14:28:56;100420.13;;;5.16;100.00
41862;BME280;27537;57.134;-2.136;2022-12-18T14:31:25;100431.88;;;5.33;100.00
41862;BME280;27537;57.134;-2.136;2022-12-18T14:33:52;100437.22;;;5.26;100.00
41862;BME280;27537;57.134;-2.136;2022-12-18T14:36:24;100423.25;;;5.31;100.00